sensor_id;sensor_type;location;lat;lon;timestamp;temperature;humidity
18729;DHT22;9493;51.884;5.188;2023-04-03T00:01:35;4.10;99.90
18729;DHT22;9493;51.884;5.188;2023-04-03T00:04:03;4.10;99.90
18729;DHT22;9493;51.884;5.188;2023-04-03T00:06:30;4.10;99.90
18729;DHT22;9493;51.884;5.188;2023-04-03T00:08:58;4.00;99.90
18729;DHT22;9493;51.884;5.188;2023-04-03T00:11:25;4.00;99.90
18729;DHT22;9493;51.884;5.188;2023-04-03T00:13:51;3.90;99.90
18729;DHT22;9493;51.884;5.188;2023-04-03T00:16:18;3.90;99.90
18729;DHT22;9493;51.884;5.188;2023-04-03T00:18:46;4.00;99.90
18729;DHT22;9493;51.884;5.188;2023-04-03T00:21:14;3.80;99.90
18729;DHT22;9493;51.884;5.188;2023-04-03T00:23:41;3.80;99.90
18729;DHT22;9493;51.884;5.188;2023-04-03T00:26:07;3.80;99.90
18729;DHT22;9493;51.884;5.188;2023-04-03T00:28:34;3.80;99.90
18729;DHT22;9493;51.884;5.188;2023-04-03T00:31:01;3.70;99.90
18729;DHT22;9493;51.884;5.188;2023-04-03T00:33:28;3.70;99.90
18729;DHT22;9493;51.884;5.188;2023-04-03T00:35:56;3.70;99.90
18729;DHT22;9493;51.884;5.188;2023-04-03T00:38:22;3.70;99.90
18729;DHT22;9493;51.884;5.188;2023-04-03T00:40:50;3.60;99.90
18729;DHT22;9493;51.884;5.188;2023-04-03T00:43:22;3.60;99.90
18729;DHT22;9493;51.884;5.188;2023-04-03T00:45:50;3.60;99.90
18729;DHT22;9493;51.884;5.188;2023-04-03T00:48:20;3.50;99.90
18729;DHT22;9493;51.884;5.188;2023-04-03T00:50:48;3.50;99.90
18729;DHT22;9493;51.884;5.188;2023-04-03T00:53:20;3.50;99.90
18729;DHT22;9493;51.884;5.188;2023-04-03T00:55:49;3.40;99.90
18729;DHT22;9493;51.884;5.188;2023-04-03T00:58:18;3.40;99.90
18729;DHT22;9493;51.884;5.188;2023-04-03T01:00:50;3.40;99.90
18729;DHT22;9493;51.884;5.188;2023-04-03T01:03:21;3.30;99.90
18729;DHT22;9493;51.884;5.188;2023-04-03T01:05:48;3.30;99.90
18729;DHT22;9493;51.884;5.188;2023-04-03T01:08:15;3.30;99.90
18729;DHT22;9493;51.884;5.188;2023-04-03T01:10:43;3.30;99.90
18729;DHT22;9493;51.884;5.188;2023-04-03T01:13:23;3.20;99.90
18729;DHT22;9493;51.884;5.188;2023-04-03T01:15:50;3.20;99.90
18729;DHT22;9493;51.884;5.188;2023-04-03T01:18:17;3.20;99.90
18729;DHT22;9493;51.884;5.188;2023-04-03T01:21:00;3.30;99.90
18729;DHT22;9493;51.884;5.188;2023-04-03T01:23:44;3.20;99.90
18729;DHT22;9493;51.884;5.188;2023-04-03T01:26:15;3.20;99.90
18729;DHT22;9493;51.884;5.188;2023-04-03T01:28:42;3.10;99.90
18729;DHT22;9493;51.884;5.188;2023-04-03T01:31:16;3.10;99.90
18729;DHT22;9493;51.884;5.188;2023-04-03T01:33:46;3.10;99.90
18729;DHT22;9493;51.884;5.188;2023-04-03T01:36:19;3.10;99.90
18729;DHT22;9493;51.884;5.188;2023-04-03T01:38:46;3.10;99.90
18729;DHT22;9493;51.884;5.188;2023-04-03T01:41:13;3.10;99.90
18729;DHT22;9493;51.884;5.188;2023-04-03T01:43:41;3.10;99.90
18729;DHT22;9493;51.884;5.188;2023-04-03T01:46:07;3.00;99.90
18729;DHT22;9493;51.884;5.188;2023-04-03T01:48:34;3.00;99.90
18729;DHT22;9493;51.884;5.188;2023-04-03T01:51:02;3.00;99.90
18729;DHT22;9493;51.884;5.188;2023-04-03T01:53:29;3.00;99.90
18729;DHT22;9493;51.884;5.188;2023-04-03T01:55:56;3.00;99.90
18729;DHT22;9493;51.884;5.188;2023-04-03T01:58:23;2.90;99.90
18729;DHT22;9493;51.884;5.188;2023-04-03T02:00:50;2.90;99.90
18729;DHT22;9493;51.884;5.188;2023-04-03T02:03:17;2.90;99.90
18729;DHT22;9493;51.884;5.188;2023-04-03T02:05:44;2.90;99.90
18729;DHT22;9493;51.884;5.188;2023-04-03T02:08:12;2.80;99.90
18729;DHT22;9493;51.884;5.188;2023-04-03T02:10:39;2.80;99.90
18729;DHT22;9493;51.884;5.188;2023-04-03T02:13:06;2.90;99.90
18729;DHT22;9493;51.884;5.188;2023-04-03T02:15:33;2.80;99.90
18729;DHT22;9493;51.884;5.188;2023-04-03T02:18:00;2.90;99.90
18729;DHT22;9493;51.884;5.188;2023-04-03T02:20:26;2.80;99.90
18729;DHT22;9493;51.884;5.188;2023-04-03T02:22:53;2.80;99.90
18729;DHT22;9493;51.884;5.188;2023-04-03T02:25:21;2.80;99.90
18729;DHT22;9493;51.884;5.188;2023-04-03T02:27:48;2.70;99.90
18729;DHT22;9493;51.884;5.188;2023-04-03T02:30:15;2.70;99.90
18729;DHT22;9493;51.884;5.188;2023-04-03T02:32:42;2.70;99.90
18729;DHT22;9493;51.884;5.188;2023-04-03T02:35:10;2.70;99.90
18729;DHT22;9493;51.884;5.188;2023-04-03T02:37:37;2.70;99.90
18729;DHT22;9493;51.884;5.188;2023-04-03T02:40:05;2.60;99.90
18729;DHT22;9493;51.884;5.188;2023-04-03T02:42:33;2.60;99.90
18729;DHT22;9493;51.884;5.188;2023-04-03T02:45:00;2.60;99.90
18729;DHT22;9493;51.884;5.188;2023-04-03T02:47:27;2.60;99.90
18729;DHT22;9493;51.884;5.188;2023-04-03T02:49:54;2.50;99.90
18729;DHT22;9493;51.884;5.188;2023-04-03T02:52:21;2.50;99.90
18729;DHT22;9493;51.884;5.188;2023-04-03T02:54:48;2.50;99.90
18729;DHT22;9493;51.884;5.188;2023-04-03T02:57:14;2.50;99.90
18729;DHT22;9493;51.884;5.188;2023-04-03T02:59:42;2.50;99.90
18729;DHT22;9493;51.884;5.188;2023-04-03T03:02:10;2.50;99.90
18729;DHT22;9493;51.884;5.188;2023-04-03T03:04:37;2.50;99.90
18729;DHT22;9493;51.884;5.188;2023-04-03T03:07:04;2.50;99.90
18729;DHT22;9493;51.884;5.188;2023-04-03T03:09:31;2.50;99.90
18729;DHT22;9493;51.884;5.188;2023-04-03T03:11:57;2.40;99.90
18729;DHT22;9493;51.884;5.188;2023-04-03T03:14:24;2.40;99.90
18729;DHT22;9493;51.884;5.188;2023-04-03T03:16:52;2.40;99.90
18729;DHT22;9493;51.884;5.188;2023-04-03T03:19:19;2.40;99.90
18729;DHT22;9493;51.884;5.188;2023-04-03T03:21:46;2.40;99.90
18729;DHT22;9493;51.884;5.188;2023-04-03T03:24:13;2.30;99.90
18729;DHT22;9493;51.884;5.188;2023-04-03T03:26:41;2.30;99.90
18729;DHT22;9493;51.884;5.188;2023-04-03T03:29:08;2.30;99.90
18729;DHT22;9493;51.884;5.188;2023-04-03T03:31:35;2.30;99.90
18729;DHT22;9493;51.884;5.188;2023-04-03T03:34:03;2.20;99.90
18729;DHT22;9493;51.884;5.188;2023-04-03T03:36:30;2.20;99.90
18729;DHT22;9493;51.884;5.188;2023-04-03T03:38:57;2.20;99.90
18729;DHT22;9493;51.884;5.188;2023-04-03T03:41:23;2.20;99.90
18729;DHT22;9493;51.884;5.188;2023-04-03T03:43:50;2.20;99.90
18729;DHT22;9493;51.884;5.188;2023-04-03T03:46:17;2.20;99.90
18729;DHT22;9493;51.884;5.188;2023-04-03T03:48:44;2.10;99.90
18729;DHT22;9493;51.884;5.188;2023-04-03T03:51:12;2.10;99.90
18729;DHT22;9493;51.884;5.188;2023-04-03T03:53:39;2.00;99.90
18729;DHT22;9493;51.884;5.188;2023-04-03T03:56:06;2.00;99.90
18729;DHT22;9493;51.884;5.188;2023-04-03T03:58:33;2.00;99.90
18729;DHT22;9493;51.884;5.188;2023-04-03T04:01:01;1.90;99.90
18729;DHT22;9493;51.884;5.188;2023-04-03T04:03:28;1.90;99.90
18729;DHT22;9493;51.884;5.188;2023-04-03T04:05:55;2.00;99.90
18729;DHT22;9493;51.884;5.188;2023-04-03T04:08:23;2.00;99.90
18729;DHT22;9493;51.884;5.188;2023-04-03T04:10:50;1.90;99.90
18729;DHT22;9493;51.884;5.188;2023-04-03T04:13:17;1.90;99.90
18729;DHT22;9493;51.884;5.188;2023-04-03T04:15:43;1.90;99.90
18729;DHT22;9493;51.884;5.188;2023-04-03T04:18:10;1.90;99.90
18729;DHT22;9493;51.884;5.188;2023-04-03T04:20:37;1.90;99.90
18729;DHT22;9493;51.884;5.188;2023-04-03T04:23:04;2.00;99.90
18729;DHT22;9493;51.884;5.188;2023-04-03T04:25:32;1.90;99.90
18729;DHT22;9493;51.884;5.188;2023-04-03T04:27:59;1.90;99.90
18729;DHT22;9493;51.884;5.188;2023-04-03T04:30:26;1.90;99.90
18729;DHT22;9493;51.884;5.188;2023-04-03T04:32:52;2.00;99.90
18729;DHT22;9493;51.884;5.188;2023-04-03T04:35:19;1.90;99.90
18729;DHT22;9493;51.884;5.188;2023-04-03T04:37:46;2.00;99.90
18729;DHT22;9493;51.884;5.188;2023-04-03T04:40:13;1.90;99.90
18729;DHT22;9493;51.884;5.188;2023-04-03T04:42:41;1.90;99.90
18729;DHT22;9493;51.884;5.188;2023-04-03T04:45:08;1.90;99.90
18729;DHT22;9493;51.884;5.188;2023-04-03T04:47:35;1.90;99.90
18729;DHT22;9493;51.884;5.188;2023-04-03T04:50:02;1.90;99.90
18729;DHT22;9493;51.884;5.188;2023-04-03T04:52:29;1.90;99.90
18729;DHT22;9493;51.884;5.188;2023-04-03T04:54:56;1.90;99.90
18729;DHT22;9493;51.884;5.188;2023-04-03T04:57:23;1.80;99.90
18729;DHT22;9493;51.884;5.188;2023-04-03T04:59:51;1.80;99.90
18729;DHT22;9493;51.884;5.188;2023-04-03T05:02:18;1.80;99.90
18729;DHT22;9493;51.884;5.188;2023-04-03T05:04:45;1.80;99.90
18729;DHT22;9493;51.884;5.188;2023-04-03T05:07:11;1.80;99.90
18729;DHT22;9493;51.884;5.188;2023-04-03T05:09:38;1.80;99.90
18729;DHT22;9493;51.884;5.188;2023-04-03T05:12:07;1.80;99.90
18729;DHT22;9493;51.884;5.188;2023-04-03T05:14:34;1.80;99.90
18729;DHT22;9493;51.884;5.188;2023-04-03T05:17:02;1.70;99.90
18729;DHT22;9493;51.884;5.188;2023-04-03T05:19:29;1.70;99.90
18729;DHT22;9493;51.884;5.188;2023-04-03T05:21:55;1.70;99.90
18729;DHT22;9493;51.884;5.188;2023-04-03T05:24:22;1.70;99.90
18729;DHT22;9493;51.884;5.188;2023-04-03T05:26:49;1.70;99.90
18729;DHT22;9493;51.884;5.188;2023-04-03T05:29:16;1.70;99.90
18729;DHT22;9493;51.884;5.188;2023-04-03T05:31:42;1.70;99.90
18729;DHT22;9493;51.884;5.188;2023-04-03T05:34:10;1.80;99.90
18729;DHT22;9493;51.884;5.188;2023-04-03T05:36:37;1.70;99.90
18729;DHT22;9493;51.884;5.188;2023-04-03T05:39:04;1.80;99.90
18729;DHT22;9493;51.884;5.188;2023-04-03T05:41:31;1.80;99.90
18729;DHT22;9493;51.884;5.188;2023-04-03T05:43:58;1.80;99.90
18729;DHT22;9493;51.884;5.188;2023-04-03T05:46:25;1.80;99.90
18729;DHT22;9493;51.884;5.188;2023-04-03T05:48:52;1.80;99.90
18729;DHT22;9493;51.884;5.188;2023-04-03T05:51:23;1.80;99.90
18729;DHT22;9493;51.884;5.188;2023-04-03T05:53:55;1.80;99.90
18729;DHT22;9493;51.884;5.188;2023-04-03T05:56:23;1.90;99.90
18729;DHT22;9493;51.884;5.188;2023-04-03T05:58:49;1.80;99.90
18729;DHT22;9493;51.884;5.188;2023-04-03T06:01:16;1.90;99.90
18729;DHT22;9493;51.884;5.188;2023-04-03T06:03:43;1.90;99.90
18729;DHT22;9493;51.884;5.188;2023-04-03T06:06:12;1.90;99.90
18729;DHT22;9493;51.884;5.188;2023-04-03T06:08:41;1.90;99.90
18729;DHT22;9493;51.884;5.188;2023-04-03T06:11:09;1.90;99.90
18729;DHT22;9493;51.884;5.188;2023-04-03T06:13:36;2.00;99.90
18729;DHT22;9493;51.884;5.188;2023-04-03T06:16:04;2.00;99.90
18729;DHT22;9493;51.884;5.188;2023-04-03T06:18:31;2.00;99.90
18729;DHT22;9493;51.884;5.188;2023-04-03T06:20:58;2.10;99.90
18729;DHT22;9493;51.884;5.188;2023-04-03T06:23:26;2.10;99.90
18729;DHT22;9493;51.884;5.188;2023-04-03T06:25:54;2.10;99.90
18729;DHT22;9493;51.884;5.188;2023-04-03T06:28:21;2.10;99.90
18729;DHT22;9493;51.884;5.188;2023-04-03T06:30:48;2.20;99.90
18729;DHT22;9493;51.884;5.188;2023-04-03T06:33:14;2.20;99.90
18729;DHT22;9493;51.884;5.188;2023-04-03T06:35:41;2.30;99.90
18729;DHT22;9493;51.884;5.188;2023-04-03T06:38:08;2.30;99.90
18729;DHT22;9493;51.884;5.188;2023-04-03T06:40:35;2.40;99.90
18729;DHT22;9493;51.884;5.188;2023-04-03T06:43:03;2.50;99.90
18729;DHT22;9493;51.884;5.188;2023-04-03T06:45:30;2.50;99.90
18729;DHT22;9493;51.884;5.188;2023-04-03T06:47:57;2.60;99.90
18729;DHT22;9493;51.884;5.188;2023-04-03T06:50:24;2.70;99.90
18729;DHT22;9493;51.884;5.188;2023-04-03T06:52:51;2.80;99.90
18729;DHT22;9493;51.884;5.188;2023-04-03T06:55:18;3.20;99.90
18729;DHT22;9493;51.884;5.188;2023-04-03T06:57:45;2.90;99.90
18729;DHT22;9493;51.884;5.188;2023-04-03T07:00:14;3.00;99.90
18729;DHT22;9493;51.884;5.188;2023-04-03T07:02:41;3.00;99.90
18729;DHT22;9493;51.884;5.188;2023-04-03T07:05:08;3.00;99.90
18729;DHT22;9493;51.884;5.188;2023-04-03T07:07:35;3.00;99.90
18729;DHT22;9493;51.884;5.188;2023-04-03T07:10:04;3.10;99.90
18729;DHT22;9493;51.884;5.188;2023-04-03T07:12:31;3.10;99.90
18729;DHT22;9493;51.884;5.188;2023-04-03T07:14:58;3.10;99.90
18729;DHT22;9493;51.884;5.188;2023-04-03T07:17:26;3.20;99.90
18729;DHT22;9493;51.884;5.188;2023-04-03T07:19:53;3.30;99.90
18729;DHT22;9493;51.884;5.188;2023-04-03T07:22:20;3.30;99.90
18729;DHT22;9493;51.884;5.188;2023-04-03T07:24:46;3.40;99.90
18729;DHT22;9493;51.884;5.188;2023-04-03T07:27:13;3.50;99.90
18729;DHT22;9493;51.884;5.188;2023-04-03T07:29:40;3.60;99.90
18729;DHT22;9493;51.884;5.188;2023-04-03T07:32:08;3.60;99.90
18729;DHT22;9493;51.884;5.188;2023-04-03T07:34:37;3.60;99.90
18729;DHT22;9493;51.884;5.188;2023-04-03T07:37:03;3.80;99.90
18729;DHT22;9493;51.884;5.188;2023-04-03T07:39:30;3.90;99.90
18729;DHT22;9493;51.884;5.188;2023-04-03T07:41:57;4.00;99.90
18729;DHT22;9493;51.884;5.188;2023-04-03T07:44:24;4.10;99.90
18729;DHT22;9493;51.884;5.188;2023-04-03T07:46:51;4.20;99.90
18729;DHT22;9493;51.884;5.188;2023-04-03T07:49:18;4.20;99.90
18729;DHT22;9493;51.884;5.188;2023-04-03T07:51:46;4.30;99.90
18729;DHT22;9493;51.884;5.188;2023-04-03T07:54:14;4.50;99.90
18729;DHT22;9493;51.884;5.188;2023-04-03T07:56:41;4.60;99.90
18729;DHT22;9493;51.884;5.188;2023-04-03T07:59:09;4.60;99.90
18729;DHT22;9493;51.884;5.188;2023-04-03T08:01:36;4.50;99.90
18729;DHT22;9493;51.884;5.188;2023-04-03T08:04:02;4.70;99.90
18729;DHT22;9493;51.884;5.188;2023-04-03T08:06:30;4.80;99.90
18729;DHT22;9493;51.884;5.188;2023-04-03T08:08:59;4.90;99.90
18729;DHT22;9493;51.884;5.188;2023-04-03T08:11:26;5.00;99.90
18729;DHT22;9493;51.884;5.188;2023-04-03T08:13:53;5.00;99.90
18729;DHT22;9493;51.884;5.188;2023-04-03T08:16:22;5.20;99.90
18729;DHT22;9493;51.884;5.188;2023-04-03T08:18:51;5.30;99.90
18729;DHT22;9493;51.884;5.188;2023-04-03T08:21:17;5.40;99.90
18729;DHT22;9493;51.884;5.188;2023-04-03T08:23:44;5.70;99.90
18729;DHT22;9493;51.884;5.188;2023-04-03T08:26:19;5.80;99.90
18729;DHT22;9493;51.884;5.188;2023-04-03T08:28:46;6.10;99.90
18729;DHT22;9493;51.884;5.188;2023-04-03T08:31:15;6.40;99.90
18729;DHT22;9493;51.884;5.188;2023-04-03T08:33:44;6.50;99.90
18729;DHT22;9493;51.884;5.188;2023-04-03T08:36:18;6.70;99.90
18729;DHT22;9493;51.884;5.188;2023-04-03T08:38:45;6.80;99.90
18729;DHT22;9493;51.884;5.188;2023-04-03T08:41:19;6.90;99.90
18729;DHT22;9493;51.884;5.188;2023-04-03T08:43:57;6.70;99.90
18729;DHT22;9493;51.884;5.188;2023-04-03T08:46:35;6.80;99.90
18729;DHT22;9493;51.884;5.188;2023-04-03T08:49:12;7.00;99.90
18729;DHT22;9493;51.884;5.188;2023-04-03T08:51:43;7.30;99.90
18729;DHT22;9493;51.884;5.188;2023-04-03T08:54:22;7.60;99.90
18729;DHT22;9493;51.884;5.188;2023-04-03T08:56:52;7.40;99.90
18729;DHT22;9493;51.884;5.188;2023-04-03T08:59:24;7.70;99.90
18729;DHT22;9493;51.884;5.188;2023-04-03T09:01:53;7.80;99.90
18729;DHT22;9493;51.884;5.188;2023-04-03T09:04:20;7.90;99.90
18729;DHT22;9493;51.884;5.188;2023-04-03T09:06:50;8.00;99.90
18729;DHT22;9493;51.884;5.188;2023-04-03T09:09:29;7.90;99.70
18729;DHT22;9493;51.884;5.188;2023-04-03T09:12:03;8.00;99.40
18729;DHT22;9493;51.884;5.188;2023-04-03T09:14:38;8.10;98.60
18729;DHT22;9493;51.884;5.188;2023-04-03T09:17:13;8.40;97.60
18729;DHT22;9493;51.884;5.188;2023-04-03T09:19:47;8.60;96.70
18729;DHT22;9493;51.884;5.188;2023-04-03T09:22:18;8.40;95.90
18729;DHT22;9493;51.884;5.188;2023-04-03T09:24:49;8.60;94.90
18729;DHT22;9493;51.884;5.188;2023-04-03T09:27:20;8.60;94.30
18729;DHT22;9493;51.884;5.188;2023-04-03T09:29:47;8.70;93.30
18729;DHT22;9493;51.884;5.188;2023-04-03T09:32:21;8.90;89.80
18729;DHT22;9493;51.884;5.188;2023-04-03T09:34:49;8.80;87.70
18729;DHT22;9493;51.884;5.188;2023-04-03T09:37:39;8.60;87.20
18729;DHT22;9493;51.884;5.188;2023-04-03T09:40:32;9.20;85.90
18729;DHT22;9493;51.884;5.188;2023-04-03T09:43:19;8.90;82.10
18729;DHT22;9493;51.884;5.188;2023-04-03T09:45:48;8.80;80.30
18729;DHT22;9493;51.884;5.188;2023-04-03T09:48:17;9.30;80.00
18729;DHT22;9493;51.884;5.188;2023-04-03T09:50:59;9.20;79.40
18729;DHT22;9493;51.884;5.188;2023-04-03T09:53:30;9.10;79.40
18729;DHT22;9493;51.884;5.188;2023-04-03T09:55:57;9.20;79.10
18729;DHT22;9493;51.884;5.188;2023-04-03T09:58:27;9.30;79.30
18729;DHT22;9493;51.884;5.188;2023-04-03T10:00:57;9.70;80.50
18729;DHT22;9493;51.884;5.188;2023-04-03T10:03:27;9.70;80.20
18729;DHT22;9493;51.884;5.188;2023-04-03T10:05:54;9.40;78.50
18729;DHT22;9493;51.884;5.188;2023-04-03T10:08:25;9.60;78.60
18729;DHT22;9493;51.884;5.188;2023-04-03T10:11:09;9.90;78.40
18729;DHT22;9493;51.884;5.188;2023-04-03T10:13:49;9.90;78.40
18729;DHT22;9493;51.884;5.188;2023-04-03T10:16:18;9.80;78.30
18729;DHT22;9493;51.884;5.188;2023-04-03T10:18:53;9.90;77.70
18729;DHT22;9493;51.884;5.188;2023-04-03T10:21:32;9.90;76.60
18729;DHT22;9493;51.884;5.188;2023-04-03T10:24:08;10.40;76.00
18729;DHT22;9493;51.884;5.188;2023-04-03T10:26:41;9.90;75.20
18729;DHT22;9493;51.884;5.188;2023-04-03T10:29:19;10.20;74.10
18729;DHT22;9493;51.884;5.188;2023-04-03T10:31:55;10.80;73.60
18729;DHT22;9493;51.884;5.188;2023-04-03T10:34:29;10.60;73.30
18729;DHT22;9493;51.884;5.188;2023-04-03T10:37:03;10.40;72.80
18729;DHT22;9493;51.884;5.188;2023-04-03T10:39:37;10.30;72.80
18729;DHT22;9493;51.884;5.188;2023-04-03T10:42:10;10.60;72.70
18729;DHT22;9493;51.884;5.188;2023-04-03T10:44:50;10.60;72.70
18729;DHT22;9493;51.884;5.188;2023-04-03T10:47:20;10.60;73.00
18729;DHT22;9493;51.884;5.188;2023-04-03T10:49:54;10.60;73.00
18729;DHT22;9493;51.884;5.188;2023-04-03T10:52:26;10.70;72.70
18729;DHT22;9493;51.884;5.188;2023-04-03T10:55:02;10.70;70.80
18729;DHT22;9493;51.884;5.188;2023-04-03T10:57:32;10.40;70.90
18729;DHT22;9493;51.884;5.188;2023-04-03T11:00:03;10.70;70.40
18729;DHT22;9493;51.884;5.188;2023-04-03T11:02:37;11.10;69.80
18729;DHT22;9493;51.884;5.188;2023-04-03T11:05:07;10.90;68.60
18729;DHT22;9493;51.884;5.188;2023-04-03T11:07:43;10.70;68.70
18729;DHT22;9493;51.884;5.188;2023-04-03T11:10:15;10.60;68.20
18729;DHT22;9493;51.884;5.188;2023-04-03T11:12:48;11.00;67.90
18729;DHT22;9493;51.884;5.188;2023-04-03T11:15:19;11.20;68.20
18729;DHT22;9493;51.884;5.188;2023-04-03T11:17:49;11.50;68.00
18729;DHT22;9493;51.884;5.188;2023-04-03T11:20:22;11.30;67.30
18729;DHT22;9493;51.884;5.188;2023-04-03T11:22:57;11.00;67.00
18729;DHT22;9493;51.884;5.188;2023-04-03T11:25:25;10.90;67.00
18729;DHT22;9493;51.884;5.188;2023-04-03T11:27:56;10.90;66.80
18729;DHT22;9493;51.884;5.188;2023-04-03T11:30:28;11.50;67.30
18729;DHT22;9493;51.884;5.188;2023-04-03T11:33:09;11.70;67.40
18729;DHT22;9493;51.884;5.188;2023-04-03T11:35:43;11.40;67.80
18729;DHT22;9493;51.884;5.188;2023-04-03T11:38:16;11.20;67.30
18729;DHT22;9493;51.884;5.188;2023-04-03T11:40:45;11.60;67.20
18729;DHT22;9493;51.884;5.188;2023-04-03T11:43:22;11.80;67.40
18729;DHT22;9493;51.884;5.188;2023-04-03T11:45:55;11.70;67.10
18729;DHT22;9493;51.884;5.188;2023-04-03T11:48:45;11.20;66.60
18729;DHT22;9493;51.884;5.188;2023-04-03T11:51:40;11.00;66.20
18729;DHT22;9493;51.884;5.188;2023-04-03T11:54:36;11.20;66.70
18729;DHT22;9493;51.884;5.188;2023-04-03T12:09:34;11.90;68.70
18729;DHT22;9493;51.884;5.188;2023-04-03T12:12:23;12.30;68.90
18729;DHT22;9493;51.884;5.188;2023-04-03T12:14:51;12.00;69.00
18729;DHT22;9493;51.884;5.188;2023-04-03T12:17:22;11.80;68.30
18729;DHT22;9493;51.884;5.188;2023-04-03T12:19:51;11.80;68.30
18729;DHT22;9493;51.884;5.188;2023-04-03T12:22:19;11.90;68.50
18729;DHT22;9493;51.884;5.188;2023-04-03T12:24:49;12.20;69.80
18729;DHT22;9493;51.884;5.188;2023-04-03T12:27:24;12.40;69.70
18729;DHT22;9493;51.884;5.188;2023-04-03T12:29:58;12.30;70.00
18729;DHT22;9493;51.884;5.188;2023-04-03T12:32:40;13.00;70.40
18729;DHT22;9493;51.884;5.188;2023-04-03T12:35:16;12.70;70.50
18729;DHT22;9493;51.884;5.188;2023-04-03T12:38:05;12.40;70.00
18729;DHT22;9493;51.884;5.188;2023-04-03T12:40:43;12.40;69.80
18729;DHT22;9493;51.884;5.188;2023-04-03T12:43:28;12.50;69.60
18729;DHT22;9493;51.884;5.188;2023-04-03T12:46:02;12.90;69.70
18729;DHT22;9493;51.884;5.188;2023-04-03T12:48:30;12.90;69.70
18729;DHT22;9493;51.884;5.188;2023-04-03T12:50:58;12.50;69.50
18729;DHT22;9493;51.884;5.188;2023-04-03T12:53:26;12.20;69.50
18729;DHT22;9493;51.884;5.188;2023-04-03T12:55:57;12.40;69.30
18729;DHT22;9493;51.884;5.188;2023-04-03T12:58:44;12.60;69.10
18729;DHT22;9493;51.884;5.188;2023-04-03T13:01:13;12.70;69.40
18729;DHT22;9493;51.884;5.188;2023-04-03T13:03:43;12.70;69.90
18729;DHT22;9493;51.884;5.188;2023-04-03T13:06:14;12.50;69.80
18729;DHT22;9493;51.884;5.188;2023-04-03T13:08:48;12.70;69.70
18729;DHT22;9493;51.884;5.188;2023-04-03T13:11:18;12.60;69.40
18729;DHT22;9493;51.884;5.188;2023-04-03T13:13:57;12.80;69.80
18729;DHT22;9493;51.884;5.188;2023-04-03T13:16:25;12.50;69.50
18729;DHT22;9493;51.884;5.188;2023-04-03T13:18:53;12.70;69.50
18729;DHT22;9493;51.884;5.188;2023-04-03T13:21:22;12.60;69.80
18729;DHT22;9493;51.884;5.188;2023-04-03T13:23:52;12.70;69.90
18729;DHT22;9493;51.884;5.188;2023-04-03T13:26:24;12.80;69.40
18729;DHT22;9493;51.884;5.188;2023-04-03T13:29:03;12.50;69.40
18729;DHT22;9493;51.884;5.188;2023-04-03T13:31:32;13.20;69.70
18729;DHT22;9493;51.884;5.188;2023-04-03T13:34:04;13.00;71.00
18729;DHT22;9493;51.884;5.188;2023-04-03T13:36:34;13.10;71.00
18729;DHT22;9493;51.884;5.188;2023-04-03T13:39:06;13.10;71.30
18729;DHT22;9493;51.884;5.188;2023-04-03T13:41:36;12.90;71.10
18729;DHT22;9493;51.884;5.188;2023-04-03T13:44:28;12.60;71.10
18729;DHT22;9493;51.884;5.188;2023-04-03T13:46:57;13.30;70.80
18729;DHT22;9493;51.884;5.188;2023-04-03T13:49:31;13.30;70.00
18729;DHT22;9493;51.884;5.188;2023-04-03T13:51:58;13.50;70.20
18729;DHT22;9493;51.884;5.188;2023-04-03T13:54:30;13.00;70.30
18729;DHT22;9493;51.884;5.188;2023-04-03T13:57:00;13.30;70.60
18729;DHT22;9493;51.884;5.188;2023-04-03T13:59:30;13.50;70.50
18729;DHT22;9493;51.884;5.188;2023-04-03T14:02:13;13.00;70.70
18729;DHT22;9493;51.884;5.188;2023-04-03T14:04:51;13.50;70.80
18729;DHT22;9493;51.884;5.188;2023-04-03T14:07:21;13.60;70.80
18729;DHT22;9493;51.884;5.188;2023-04-03T14:09:49;13.30;70.60
18729;DHT22;9493;51.884;5.188;2023-04-03T14:12:24;13.00;70.70
18729;DHT22;9493;51.884;5.188;2023-04-03T14:14:52;13.30;70.70
18729;DHT22;9493;51.884;5.188;2023-04-03T14:17:22;13.50;71.10
18729;DHT22;9493;51.884;5.188;2023-04-03T14:19:50;13.80;72.40
18729;DHT22;9493;51.884;5.188;2023-04-03T14:22:20;13.50;72.20
18729;DHT22;9493;51.884;5.188;2023-04-03T14:24:48;13.00;72.80
18729;DHT22;9493;51.884;5.188;2023-04-03T14:27:20;13.10;72.90
18729;DHT22;9493;51.884;5.188;2023-04-03T14:29:48;13.60;72.40
18729;DHT22;9493;51.884;5.188;2023-04-03T14:32:17;13.80;72.20
18729;DHT22;9493;51.884;5.188;2023-04-03T14:34:45;12.90;71.10
18729;DHT22;9493;51.884;5.188;2023-04-03T14:37:13;13.40;70.70
18729;DHT22;9493;51.884;5.188;2023-04-03T14:39:41;13.60;70.60
18729;DHT22;9493;51.884;5.188;2023-04-03T14:42:12;13.00;70.10
18729;DHT22;9493;51.884;5.188;2023-04-03T14:44:41;13.00;69.90
18729;DHT22;9493;51.884;5.188;2023-04-03T14:47:10;13.30;69.90
18729;DHT22;9493;51.884;5.188;2023-04-03T14:49:38;13.40;69.80
18729;DHT22;9493;51.884;5.188;2023-04-03T14:52:05;12.70;69.20
18729;DHT22;9493;51.884;5.188;2023-04-03T14:54:32;13.40;69.90
18729;DHT22;9493;51.884;5.188;2023-04-03T14:57:00;13.60;70.10
18729;DHT22;9493;51.884;5.188;2023-04-03T14:59:28;13.10;70.10
18729;DHT22;9493;51.884;5.188;2023-04-03T15:01:57;13.30;70.70
18729;DHT22;9493;51.884;5.188;2023-04-03T15:04:23;13.20;70.90
18729;DHT22;9493;51.884;5.188;2023-04-03T15:06:51;12.80;70.50
18729;DHT22;9493;51.884;5.188;2023-04-03T15:09:20;12.90;71.50
18729;DHT22;9493;51.884;5.188;2023-04-03T15:11:48;13.00;71.40
18729;DHT22;9493;51.884;5.188;2023-04-03T15:14:15;12.60;71.10
18729;DHT22;9493;51.884;5.188;2023-04-03T15:16:42;12.40;71.00
18729;DHT22;9493;51.884;5.188;2023-04-03T15:19:11;12.50;70.90
18729;DHT22;9493;51.884;5.188;2023-04-03T15:21:38;12.60;70.40
18729;DHT22;9493;51.884;5.188;2023-04-03T15:24:05;12.30;70.20
18729;DHT22;9493;51.884;5.188;2023-04-03T15:26:32;12.70;70.50
18729;DHT22;9493;51.884;5.188;2023-04-03T15:28:59;12.70;71.10
18729;DHT22;9493;51.884;5.188;2023-04-03T15:31:27;12.50;70.90
18729;DHT22;9493;51.884;5.188;2023-04-03T15:33:54;12.30;70.70
18729;DHT22;9493;51.884;5.188;2023-04-03T15:36:22;12.00;70.30
18729;DHT22;9493;51.884;5.188;2023-04-03T15:38:49;11.90;69.90
18729;DHT22;9493;51.884;5.188;2023-04-03T15:41:15;12.00;69.50
18729;DHT22;9493;51.884;5.188;2023-04-03T15:43:43;12.00;69.70
18729;DHT22;9493;51.884;5.188;2023-04-03T15:46:09;12.40;69.80
18729;DHT22;9493;51.884;5.188;2023-04-03T15:48:36;12.50;71.40
18729;DHT22;9493;51.884;5.188;2023-04-03T15:51:04;11.80;71.30
18729;DHT22;9493;51.884;5.188;2023-04-03T15:53:33;11.80;71.40
18729;DHT22;9493;51.884;5.188;2023-04-03T15:56:00;11.60;71.40
18729;DHT22;9493;51.884;5.188;2023-04-03T15:58:26;11.20;71.60
18729;DHT22;9493;51.884;5.188;2023-04-03T16:00:54;11.60;71.20
18729;DHT22;9493;51.884;5.188;2023-04-03T16:03:20;11.30;71.40
18729;DHT22;9493;51.884;5.188;2023-04-03T16:05:48;11.50;71.90
18729;DHT22;9493;51.884;5.188;2023-04-03T16:08:15;11.60;72.40
18729;DHT22;9493;51.884;5.188;2023-04-03T16:10:44;11.50;72.50
18729;DHT22;9493;51.884;5.188;2023-04-03T16:13:12;11.60;72.60
18729;DHT22;9493;51.884;5.188;2023-04-03T16:15:40;11.40;72.70
18729;DHT22;9493;51.884;5.188;2023-04-03T16:18:07;11.00;72.60
18729;DHT22;9493;51.884;5.188;2023-04-03T16:20:34;11.10;72.60
18729;DHT22;9493;51.884;5.188;2023-04-03T16:23:02;11.30;72.90
18729;DHT22;9493;51.884;5.188;2023-04-03T16:25:29;11.40;72.80